DKH3810 ZUNP-ZUCK
Flight info
| Callsign | DKH3810 |
|---|---|
| Flight time | 0h 55m |
| Altitude | 23600 |
| Route | LIP J451 ELKAL W179 SUMUN W3 ASIPO W678 SEGDA |
| Aircraft | A319/M-SDE3FGHIRWY/LB1 |
Departure
| Time | 2026-04-28 07:14 |
|---|---|
| Airport | Liping Airport (ZUNP) |
Arrival
| Time | 2026-04-28 08:09 |
|---|---|
| Airport | Chongqing Jiangbei International Airport (ZUCK) |
| Time | Latitude | Longitude | Altitude | Speed | Heading |
|---|---|---|---|---|---|
| 2026-04-28 06:59 | 26.32125 | 109.15352 | 1609 ft | 0 kts | 150° |
| 2026-04-28 07:09 | 26.32099 | 109.15346 | 1613 ft | 8 kts | 212° |
| 2026-04-28 07:09 | 26.32074 | 109.15303 | 1609 ft | 6 kts | 252° |
| 2026-04-28 07:09 | 26.32108 | 109.15263 | 1612 ft | 11 kts | 331° |
| 2026-04-28 07:09 | 26.32201 | 109.15205 | 1610 ft | 15 kts | 330° |
| 2026-04-28 07:10 | 26.32270 | 109.15153 | 1609 ft | 10 kts | 304° |
| 2026-04-28 07:10 | 26.32269 | 109.15086 | 1617 ft | 9 kts | 248° |
| 2026-04-28 07:10 | 26.32230 | 109.15008 | 1608 ft | 14 kts | 240° |
| 2026-04-28 07:10 | 26.32172 | 109.14893 | 1608 ft | 20 kts | 240° |
| 2026-04-28 07:11 | 26.32094 | 109.14741 | 1608 ft | 25 kts | 240° |
| 2026-04-28 07:11 | 26.32006 | 109.14568 | 1606 ft | 26 kts | 240° |
| 2026-04-28 07:11 | 26.31920 | 109.14401 | 1604 ft | 23 kts | 240° |
| 2026-04-28 07:11 | 26.31839 | 109.14243 | 1602 ft | 22 kts | 240° |
| 2026-04-28 07:12 | 26.31782 | 109.14133 | 1601 ft | 11 kts | 238° |
| 2026-04-28 07:12 | 26.31734 | 109.14096 | 1601 ft | 7 kts | 215° |
| 2026-04-28 07:12 | 26.31731 | 109.14055 | 1600 ft | 5 kts | 330° |
| 2026-04-28 07:12 | 26.31751 | 109.14070 | 1600 ft | 1 kts | 58° |
| 2026-04-28 07:13 | 26.31752 | 109.14071 | 1600 ft | 0 kts | 62° |
| 2026-04-28 07:13 | 26.31801 | 109.14169 | 1600 ft | 50 kts | 60° |
| 2026-04-28 07:14 | 26.32098 | 109.14751 | 1607 ft | 122 kts | 60° |
| 2026-04-28 07:14 | 26.32605 | 109.15736 | 1830 ft | 155 kts | 57° |
| 2026-04-28 07:14 | 26.33134 | 109.16761 | 2612 ft | 152 kts | 57° |
| 2026-04-28 07:14 | 26.33653 | 109.17782 | 3455 ft | 150 kts | 56° |
| 2026-04-28 07:15 | 26.34163 | 109.18789 | 4209 ft | 148 kts | 56° |
| 2026-04-28 07:15 | 26.34700 | 109.19767 | 4900 ft | 149 kts | 50° |
| 2026-04-28 07:15 | 26.35440 | 109.20659 | 5317 ft | 168 kts | 38° |
| 2026-04-28 07:15 | 26.36473 | 109.21427 | 5677 ft | 190 kts | 25° |
| 2026-04-28 07:16 | 26.37784 | 109.21917 | 6029 ft | 215 kts | 10° |
| 2026-04-28 07:16 | 26.39363 | 109.22014 | 6518 ft | 240 kts | 0° |
| 2026-04-28 07:16 | 26.41118 | 109.22025 | 7029 ft | 264 kts | 0° |
| 2026-04-28 07:16 | 26.43001 | 109.22042 | 7833 ft | 274 kts | 359° |
| 2026-04-28 07:17 | 26.44927 | 109.21853 | 8748 ft | 282 kts | 348° |
| 2026-04-28 07:17 | 26.46828 | 109.21235 | 9648 ft | 288 kts | 336° |
| 2026-04-28 07:17 | 26.48608 | 109.20172 | 10496 ft | 293 kts | 324° |
| 2026-04-28 07:17 | 26.50169 | 109.18697 | 11387 ft | 295 kts | 312° |
| 2026-04-28 07:18 | 26.51434 | 109.16886 | 12270 ft | 299 kts | 301° |
| 2026-04-28 07:18 | 26.52383 | 109.14766 | 12622 ft | 321 kts | 289° |
| 2026-04-28 07:18 | 26.52900 | 109.12281 | 13125 ft | 335 kts | 276° |
| 2026-04-28 07:18 | 26.52890 | 109.09660 | 13886 ft | 340 kts | 263° |
| 2026-04-28 07:19 | 26.52349 | 109.07079 | 14598 ft | 344 kts | 250° |
| 2026-04-28 07:19 | 26.51258 | 109.04689 | 15322 ft | 348 kts | 237° |
| 2026-04-28 07:19 | 26.49667 | 109.02644 | 16039 ft | 353 kts | 223° |
| 2026-04-28 07:19 | 26.47752 | 109.00899 | 16770 ft | 356 kts | 220° |
| 2026-04-28 07:20 | 26.45815 | 108.99159 | 17474 ft | 359 kts | 220° |
| 2026-04-28 07:20 | 26.43862 | 108.97404 | 18188 ft | 362 kts | 220° |
| 2026-04-28 07:20 | 26.41919 | 108.95660 | 18795 ft | 365 kts | 220° |
| 2026-04-28 07:20 | 26.39935 | 108.93885 | 19399 ft | 367 kts | 220° |
| 2026-04-28 07:21 | 26.37940 | 108.92100 | 20010 ft | 369 kts | 220° |
| 2026-04-28 07:21 | 26.35932 | 108.90301 | 20638 ft | 371 kts | 220° |
| 2026-04-28 07:21 | 26.33917 | 108.88494 | 21246 ft | 373 kts | 220° |
| 2026-04-28 07:22 | 26.29838 | 108.84840 | 22425 ft | 378 kts | 220° |
| 2026-04-28 07:22 | 26.27779 | 108.82992 | 23015 ft | 381 kts | 220° |
| 2026-04-28 07:22 | 26.25735 | 108.81159 | 23561 ft | 384 kts | 220° |
| 2026-04-28 07:22 | 26.23732 | 108.79190 | 24015 ft | 386 kts | 227° |
| 2026-04-28 07:23 | 26.22087 | 108.76826 | 24470 ft | 388 kts | 238° |
| 2026-04-28 07:23 | 26.20904 | 108.74111 | 24881 ft | 393 kts | 248° |
| 2026-04-28 07:23 | 26.19980 | 108.71239 | 25307 ft | 396 kts | 249° |
| 2026-04-28 07:23 | 26.19044 | 108.68347 | 25746 ft | 398 kts | 248° |
| 2026-04-28 07:24 | 26.18097 | 108.65438 | 26168 ft | 401 kts | 248° |
| 2026-04-28 07:24 | 26.17142 | 108.62508 | 26592 ft | 404 kts | 248° |
| 2026-04-28 07:24 | 26.16176 | 108.59561 | 27001 ft | 407 kts | 248° |
| 2026-04-28 07:24 | 26.15203 | 108.56595 | 27388 ft | 410 kts | 248° |
| 2026-04-28 07:25 | 26.14231 | 108.53633 | 27486 ft | 418 kts | 248° |
| 2026-04-28 07:25 | 26.13216 | 108.50558 | 27506 ft | 429 kts | 248° |
| 2026-04-28 07:25 | 26.12179 | 108.47413 | 27499 ft | 436 kts | 248° |
| 2026-04-28 07:25 | 26.11173 | 108.44225 | 27496 ft | 438 kts | 252° |
| 2026-04-28 07:26 | 26.10705 | 108.40867 | 27505 ft | 443 kts | 266° |
| 2026-04-28 07:26 | 26.11005 | 108.37451 | 27507 ft | 448 kts | 280° |
| 2026-04-28 07:26 | 26.12073 | 108.34175 | 27509 ft | 454 kts | 291° |
| 2026-04-28 07:26 | 26.13439 | 108.31007 | 27502 ft | 454 kts | 292° |
| 2026-04-28 07:27 | 26.14793 | 108.27889 | 27506 ft | 454 kts | 292° |
| 2026-04-28 07:27 | 26.16171 | 108.24725 | 27496 ft | 454 kts | 292° |
| 2026-04-28 07:27 | 26.17541 | 108.21561 | 27495 ft | 453 kts | 292° |
| 2026-04-28 07:27 | 26.18902 | 108.18402 | 27493 ft | 453 kts | 291° |
| 2026-04-28 07:28 | 26.20261 | 108.15242 | 27496 ft | 453 kts | 292° |
| 2026-04-28 07:28 | 26.21625 | 108.12081 | 27498 ft | 453 kts | 292° |
| 2026-04-28 07:28 | 26.22988 | 108.08923 | 27494 ft | 453 kts | 292° |
| 2026-04-28 07:28 | 26.24349 | 108.05760 | 27498 ft | 453 kts | 292° |
| 2026-04-28 07:29 | 26.25713 | 108.02597 | 27501 ft | 453 kts | 292° |
| 2026-04-28 07:29 | 26.27058 | 107.99476 | 27499 ft | 453 kts | 292° |
| 2026-04-28 07:29 | 26.28419 | 107.96312 | 27500 ft | 453 kts | 291° |
| 2026-04-28 07:29 | 26.29779 | 107.93147 | 27505 ft | 453 kts | 291° |
| 2026-04-28 07:30 | 26.31142 | 107.89973 | 27509 ft | 454 kts | 291° |
| 2026-04-28 07:30 | 26.32501 | 107.86803 | 27520 ft | 454 kts | 291° |
| 2026-04-28 07:30 | 26.33862 | 107.83627 | 27539 ft | 453 kts | 291° |
| 2026-04-28 07:30 | 26.35219 | 107.80454 | 27539 ft | 453 kts | 291° |
| 2026-04-28 07:31 | 26.36578 | 107.77281 | 27543 ft | 453 kts | 291° |
| 2026-04-28 07:31 | 26.37915 | 107.74152 | 27562 ft | 453 kts | 291° |
| 2026-04-28 07:31 | 26.39265 | 107.70987 | 27561 ft | 452 kts | 291° |
| 2026-04-28 07:31 | 26.40611 | 107.67826 | 27562 ft | 451 kts | 291° |
| 2026-04-28 07:32 | 26.41957 | 107.64666 | 27557 ft | 451 kts | 291° |
| 2026-04-28 07:32 | 26.43305 | 107.61508 | 27547 ft | 450 kts | 291° |
| 2026-04-28 07:32 | 26.44651 | 107.58357 | 27565 ft | 450 kts | 291° |
| 2026-04-28 07:32 | 26.45993 | 107.55206 | 27556 ft | 450 kts | 291° |
| 2026-04-28 07:33 | 26.47330 | 107.52053 | 27561 ft | 449 kts | 291° |
| 2026-04-28 07:33 | 26.48664 | 107.48900 | 27558 ft | 449 kts | 291° |
| 2026-04-28 07:33 | 26.49981 | 107.45793 | 27565 ft | 449 kts | 291° |
| 2026-04-28 07:33 | 26.51316 | 107.42647 | 27570 ft | 448 kts | 291° |
| 2026-04-28 07:34 | 26.52651 | 107.39499 | 27572 ft | 448 kts | 291° |
| 2026-04-28 07:34 | 26.53982 | 107.36354 | 27570 ft | 448 kts | 291° |
| 2026-04-28 07:34 | 26.55314 | 107.33204 | 27573 ft | 448 kts | 291° |
| 2026-04-28 07:34 | 26.56642 | 107.30055 | 27587 ft | 448 kts | 291° |
| 2026-04-28 07:35 | 26.57969 | 107.26914 | 27588 ft | 448 kts | 291° |
| 2026-04-28 07:35 | 26.59298 | 107.23766 | 27583 ft | 448 kts | 291° |
| 2026-04-28 07:35 | 26.60612 | 107.20664 | 27579 ft | 447 kts | 291° |
| 2026-04-28 07:35 | 26.61941 | 107.17522 | 27594 ft | 447 kts | 291° |
| 2026-04-28 07:36 | 26.63271 | 107.14379 | 27590 ft | 447 kts | 291° |
| 2026-04-28 07:36 | 26.64610 | 107.11239 | 27588 ft | 447 kts | 291° |
| 2026-04-28 07:36 | 26.65961 | 107.08108 | 27585 ft | 447 kts | 292° |
| 2026-04-28 07:36 | 26.67314 | 107.04984 | 27592 ft | 447 kts | 291° |
| 2026-04-28 07:37 | 26.68667 | 107.01855 | 27606 ft | 447 kts | 292° |
| 2026-04-28 07:37 | 26.70012 | 106.98726 | 27604 ft | 446 kts | 291° |
| 2026-04-28 07:37 | 26.71322 | 106.95629 | 27603 ft | 446 kts | 291° |
| 2026-04-28 07:37 | 26.72637 | 106.92483 | 27601 ft | 446 kts | 291° |
| 2026-04-28 07:38 | 26.73945 | 106.89336 | 27609 ft | 446 kts | 291° |
| 2026-04-28 07:38 | 26.75255 | 106.86187 | 27618 ft | 447 kts | 291° |
| 2026-04-28 07:38 | 26.76707 | 106.83103 | 27609 ft | 452 kts | 300° |
| 2026-04-28 07:38 | 26.78829 | 106.80487 | 27609 ft | 460 kts | 316° |
| 2026-04-28 07:39 | 26.81584 | 106.78611 | 27610 ft | 470 kts | 333° |
| 2026-04-28 07:39 | 26.84773 | 106.77717 | 27607 ft | 479 kts | 351° |
| 2026-04-28 07:39 | 26.88108 | 106.77509 | 27609 ft | 480 kts | 354° |
| 2026-04-28 07:39 | 26.91405 | 106.77346 | 27606 ft | 481 kts | 354° |
| 2026-04-28 07:40 | 26.94749 | 106.77189 | 27605 ft | 481 kts | 354° |
| 2026-04-28 07:40 | 26.98095 | 106.77029 | 27604 ft | 481 kts | 354° |
| 2026-04-28 07:40 | 27.01439 | 106.76863 | 27610 ft | 481 kts | 354° |
| 2026-04-28 07:40 | 27.04785 | 106.76691 | 27612 ft | 482 kts | 354° |
| 2026-04-28 07:41 | 27.08136 | 106.76515 | 27623 ft | 482 kts | 354° |
| 2026-04-28 07:41 | 27.11484 | 106.76337 | 27622 ft | 482 kts | 354° |
| 2026-04-28 07:41 | 27.14834 | 106.76160 | 27622 ft | 482 kts | 354° |
| 2026-04-28 07:41 | 27.18136 | 106.75987 | 27619 ft | 482 kts | 354° |
| 2026-04-28 07:42 | 27.21483 | 106.75814 | 27619 ft | 482 kts | 354° |
| 2026-04-28 07:42 | 27.24830 | 106.75640 | 27618 ft | 481 kts | 354° |
| 2026-04-28 07:42 | 27.28174 | 106.75462 | 27616 ft | 481 kts | 353° |
| 2026-04-28 07:42 | 27.31519 | 106.75283 | 27608 ft | 481 kts | 353° |
| 2026-04-28 07:43 | 27.34860 | 106.75108 | 27604 ft | 481 kts | 353° |
| 2026-04-28 07:43 | 27.38207 | 106.74944 | 27604 ft | 481 kts | 354° |
| 2026-04-28 07:43 | 27.41556 | 106.74863 | 27600 ft | 482 kts | 356° |
| 2026-04-28 07:43 | 27.44869 | 106.74863 | 27599 ft | 483 kts | 357° |
| 2026-04-28 07:44 | 27.48229 | 106.74910 | 27602 ft | 483 kts | 357° |
| 2026-04-28 07:44 | 27.51592 | 106.74971 | 27599 ft | 483 kts | 357° |
| 2026-04-28 07:44 | 27.54954 | 106.75023 | 27599 ft | 483 kts | 357° |
| 2026-04-28 07:44 | 27.58317 | 106.75051 | 27598 ft | 483 kts | 356° |
| 2026-04-28 07:45 | 27.61677 | 106.75056 | 27603 ft | 483 kts | 356° |
| 2026-04-28 07:45 | 27.65040 | 106.75051 | 27611 ft | 483 kts | 356° |
| 2026-04-28 07:45 | 27.68353 | 106.75042 | 27613 ft | 483 kts | 356° |
| 2026-04-28 07:45 | 27.71712 | 106.75035 | 27614 ft | 482 kts | 356° |
| 2026-04-28 07:46 | 27.75070 | 106.75029 | 27618 ft | 482 kts | 356° |
| 2026-04-28 07:46 | 27.78422 | 106.75028 | 27616 ft | 482 kts | 356° |
| 2026-04-28 07:46 | 27.81779 | 106.75031 | 27614 ft | 482 kts | 356° |
| 2026-04-28 07:46 | 27.85126 | 106.75039 | 27611 ft | 482 kts | 356° |
| 2026-04-28 07:47 | 27.88479 | 106.75048 | 27608 ft | 481 kts | 356° |
| 2026-04-28 07:47 | 27.91826 | 106.75050 | 27613 ft | 481 kts | 356° |
| 2026-04-28 07:47 | 27.95173 | 106.75051 | 27609 ft | 481 kts | 356° |
| 2026-04-28 07:47 | 27.98480 | 106.75052 | 27604 ft | 481 kts | 356° |
| 2026-04-28 07:48 | 28.01827 | 106.75056 | 27600 ft | 481 kts | 356° |
| 2026-04-28 07:48 | 28.05172 | 106.75058 | 27597 ft | 481 kts | 356° |
| 2026-04-28 07:48 | 28.08519 | 106.75057 | 27594 ft | 481 kts | 356° |
| 2026-04-28 07:48 | 28.11873 | 106.75055 | 27761 ft | 483 kts | 356° |
| 2026-04-28 07:49 | 28.15231 | 106.75051 | 28278 ft | 482 kts | 356° |
| 2026-04-28 07:49 | 28.18586 | 106.75051 | 28798 ft | 481 kts | 356° |
| 2026-04-28 07:49 | 28.21887 | 106.75057 | 29303 ft | 481 kts | 356° |
| 2026-04-28 07:49 | 28.25228 | 106.75068 | 29805 ft | 480 kts | 356° |
| 2026-04-28 07:50 | 28.28571 | 106.75080 | 30068 ft | 480 kts | 356° |
| 2026-04-28 07:50 | 28.31905 | 106.75049 | 30121 ft | 477 kts | 352° |
| 2026-04-28 07:50 | 28.38462 | 106.74135 | 30123 ft | 474 kts | 348° |
| 2026-04-28 07:51 | 28.45005 | 106.73160 | 30130 ft | 474 kts | 348° |
| 2026-04-28 07:51 | 28.51495 | 106.72205 | 29345 ft | 467 kts | 349° |
| 2026-04-28 07:52 | 28.54705 | 106.71736 | 28086 ft | 464 kts | 349° |
| 2026-04-28 07:52 | 28.57874 | 106.71269 | 27169 ft | 455 kts | 349° |
| 2026-04-28 07:52 | 28.60984 | 106.70811 | 26241 ft | 447 kts | 349° |
| 2026-04-28 07:52 | 28.64035 | 106.70358 | 25337 ft | 439 kts | 349° |
| 2026-04-28 07:53 | 28.67043 | 106.69908 | 24470 ft | 432 kts | 349° |
| 2026-04-28 07:53 | 28.69997 | 106.69466 | 23633 ft | 425 kts | 349° |
| 2026-04-28 07:53 | 28.72890 | 106.69216 | 22701 ft | 421 kts | 357° |
| 2026-04-28 07:53 | 28.75801 | 106.69213 | 21788 ft | 416 kts | 358° |
| 2026-04-28 07:54 | 28.78676 | 106.69215 | 21074 ft | 408 kts | 358° |
| 2026-04-28 07:54 | 28.81470 | 106.69217 | 20544 ft | 395 kts | 358° |
| 2026-04-28 07:54 | 28.84178 | 106.69218 | 20004 ft | 383 kts | 358° |
| 2026-04-28 07:54 | 28.86807 | 106.69216 | 19485 ft | 374 kts | 358° |
| 2026-04-28 07:55 | 28.89406 | 106.69208 | 18969 ft | 374 kts | 358° |
| 2026-04-28 07:55 | 28.91980 | 106.69200 | 18457 ft | 375 kts | 358° |
| 2026-04-28 07:55 | 28.94589 | 106.69191 | 17890 ft | 375 kts | 358° |
| 2026-04-28 07:55 | 28.97193 | 106.69182 | 17375 ft | 373 kts | 358° |
| 2026-04-28 07:56 | 28.99783 | 106.69177 | 16872 ft | 372 kts | 358° |
| 2026-04-28 07:56 | 29.02363 | 106.69174 | 16365 ft | 370 kts | 358° |
| 2026-04-28 07:56 | 29.04933 | 106.69172 | 15870 ft | 368 kts | 358° |
| 2026-04-28 07:56 | 29.07488 | 106.69169 | 15380 ft | 366 kts | 358° |
| 2026-04-28 07:57 | 29.10032 | 106.69167 | 14883 ft | 365 kts | 358° |
| 2026-04-28 07:57 | 29.12558 | 106.69168 | 14380 ft | 362 kts | 358° |
| 2026-04-28 07:57 | 29.15026 | 106.69005 | 13893 ft | 359 kts | 351° |
| 2026-04-28 07:57 | 29.17493 | 106.68629 | 13341 ft | 356 kts | 350° |
| 2026-04-28 07:58 | 29.19938 | 106.68258 | 12829 ft | 352 kts | 351° |
| 2026-04-28 07:58 | 29.22351 | 106.67896 | 12301 ft | 345 kts | 349° |
| 2026-04-28 07:58 | 29.24679 | 106.67549 | 11816 ft | 330 kts | 349° |
| 2026-04-28 07:58 | 29.26893 | 106.67218 | 11557 ft | 309 kts | 350° |
| 2026-04-28 07:59 | 29.28945 | 106.66912 | 11479 ft | 286 kts | 350° |
| 2026-04-28 07:59 | 29.30858 | 106.66626 | 11274 ft | 270 kts | 350° |
| 2026-04-28 07:59 | 29.32673 | 106.66292 | 10806 ft | 264 kts | 342° |
| 2026-04-28 07:59 | 29.34314 | 106.65448 | 10357 ft | 256 kts | 325° |
| 2026-04-28 08:00 | 29.35618 | 106.64107 | 9929 ft | 250 kts | 310° |
| 2026-04-28 08:00 | 29.36509 | 106.62419 | 9476 ft | 247 kts | 294° |
| 2026-04-28 08:00 | 29.37025 | 106.60558 | 9040 ft | 242 kts | 289° |
| 2026-04-28 08:00 | 29.37498 | 106.58726 | 8625 ft | 237 kts | 289° |
| 2026-04-28 08:01 | 29.37965 | 106.56935 | 8217 ft | 232 kts | 288° |
| 2026-04-28 08:01 | 29.38444 | 106.55200 | 7941 ft | 221 kts | 294° |
| 2026-04-28 08:01 | 29.39329 | 106.53938 | 7889 ft | 199 kts | 328° |
| 2026-04-28 08:01 | 29.40614 | 106.53473 | 7694 ft | 199 kts | 359° |
| 2026-04-28 08:02 | 29.42008 | 106.53836 | 7215 ft | 213 kts | 15° |
| 2026-04-28 08:02 | 29.43445 | 106.54341 | 6836 ft | 217 kts | 15° |
| 2026-04-28 08:02 | 29.44883 | 106.54838 | 6538 ft | 215 kts | 16° |
| 2026-04-28 08:02 | 29.46296 | 106.55325 | 6269 ft | 211 kts | 16° |
| 2026-04-28 08:03 | 29.47699 | 106.55807 | 5977 ft | 210 kts | 17° |
| 2026-04-28 08:03 | 29.49068 | 106.56278 | 5724 ft | 198 kts | 16° |
| 2026-04-28 08:03 | 29.50325 | 106.56711 | 5451 ft | 185 kts | 16° |
| 2026-04-28 08:03 | 29.51540 | 106.57129 | 5201 ft | 180 kts | 17° |
| 2026-04-28 08:04 | 29.52742 | 106.57543 | 4965 ft | 180 kts | 17° |
| 2026-04-28 08:04 | 29.53939 | 106.57955 | 4732 ft | 180 kts | 18° |
| 2026-04-28 08:04 | 29.55123 | 106.58362 | 4488 ft | 176 kts | 18° |
| 2026-04-28 08:04 | 29.56299 | 106.58769 | 4252 ft | 177 kts | 17° |
| 2026-04-28 08:05 | 29.57482 | 106.59176 | 3999 ft | 178 kts | 17° |
| 2026-04-28 08:05 | 29.58645 | 106.59576 | 3780 ft | 169 kts | 17° |
| 2026-04-28 08:05 | 29.59368 | 106.59825 | 3641 ft | 157 kts | 15° |
| 2026-04-28 08:05 | 29.60623 | 106.60256 | 3388 ft | 133 kts | 11° |
| 2026-04-28 08:06 | 29.61487 | 106.60555 | 3218 ft | 126 kts | 18° |
| 2026-04-28 08:06 | 29.62324 | 106.60845 | 3041 ft | 125 kts | 15° |
| 2026-04-28 08:06 | 29.63152 | 106.61130 | 2881 ft | 124 kts | 17° |
| 2026-04-28 08:06 | 29.63981 | 106.61416 | 2723 ft | 123 kts | 14° |
| 2026-04-28 08:07 | 29.64803 | 106.61700 | 2555 ft | 124 kts | 14° |
| 2026-04-28 08:07 | 29.65341 | 106.61886 | 2448 ft | 120 kts | 13° |
| 2026-04-28 08:07 | 29.66151 | 106.62166 | 2274 ft | 122 kts | 15° |
| 2026-04-28 08:07 | 29.67221 | 106.62535 | 2066 ft | 122 kts | 14° |
| 2026-04-28 08:08 | 29.68030 | 106.62816 | 1888 ft | 123 kts | 13° |
| 2026-04-28 08:08 | 29.68843 | 106.63099 | 1729 ft | 120 kts | 15° |
| 2026-04-28 08:08 | 29.69645 | 106.63366 | 1574 ft | 121 kts | 15° |
| 2026-04-28 08:08 | 29.70180 | 106.63551 | 1447 ft | 121 kts | 16° |
| 2026-04-28 08:09 | 29.70962 | 106.63823 | 1359 ft | 105 kts | 16° |
| 2026-04-28 08:09 | 29.71496 | 106.64006 | 1358 ft | 58 kts | 17° |
| 2026-04-28 08:09 | 29.71822 | 106.64119 | 1361 ft | 42 kts | 17° |
| 2026-04-28 08:09 | 29.72048 | 106.64253 | 1360 ft | 16 kts | 43° |
| 2026-04-28 08:10 | 29.72106 | 106.64317 | 1359 ft | 4 kts | 44° |
| 2026-04-28 08:15 | 29.72126 | 106.64340 | 1359 ft | 9 kts | 46° |
| 2026-04-28 08:15 | 29.72162 | 106.64385 | 1360 ft | 5 kts | 48° |
| 2026-04-28 08:15 | 29.72174 | 106.64400 | 1358 ft | 1 kts | 48° |